LPHR/HOR METAR and TAF weather

Enter ICAO airport designator
Station Type Date Time Source
LPHR METAR 2019/04/22 20:30 UTC NOAA

LPHR 222030Z 18004KT 090V250 9999 FEW018 14/08 Q1022


Station Type Date Time Source
LPHR Decoded METAR 2019/04/22 20:30 UTC NOAA

Horta / Castelo Branco Acores , Portugal (LPHR) 38-31N 028-43W 41M
Apr 22, 2019 - 04:30 PM EDT / 2019.04.22 2030 UTC
Wind: from the S (180 degrees) at 5 MPH (4 KT) (direction variable):0
Visibility: greater than 7 mile(s):0
Sky conditions: mostly clear
Temperature: 57 F (14 C)
Dew Point: 46 F (8 C)
Relative Humidity: 67%
Pressure (altimeter): 30.18 in. Hg (1022 hPa)
ob: LPHR 222030Z 18004KT 090V250 9999 FEW018 14/08 Q1022
cycle: 20

Station Type Date Time Source
LPHR TAF 2018/09/06 09:00 UTC NOAA

TAF LPHR 060800Z 0609/0618 12010KT 9999 SCT018 SCT040 PROB30
TEMPO 0609/0618 5000 SHRA BKN015 FEW018CB
BECMG 0610/0612 18010KT

Example: see airport list